createdAt,value
2019-05-05T00:00:35.473Z,94.80
2019-05-05T00:03:21.240Z,94.80
2019-05-05T00:05:51.472Z,94.90
2019-05-05T00:08:20.825Z,94.90
2019-05-05T00:11:08.010Z,94.90
2019-05-05T00:13:38.941Z,94.90
2019-05-05T00:16:09.961Z,95.30
2019-05-05T00:18:39.318Z,94.90
2019-05-05T00:21:08.604Z,95.00
2019-05-05T00:23:37.894Z,95.10
2019-05-05T00:26:07.162Z,95.10
2019-05-05T00:28:36.437Z,95.10
2019-05-05T00:31:05.728Z,95.10
2019-05-05T00:33:35.023Z,95.10
2019-05-05T00:36:07.479Z,95.10
2019-05-05T00:38:35.366Z,95.20
2019-05-05T00:41:05.428Z,95.20
2019-05-05T00:43:34.851Z,95.20
2019-05-05T00:46:05.898Z,95.20
2019-05-05T00:48:37.801Z,95.20
2019-05-05T00:51:07.070Z,95.20
2019-05-05T00:53:36.374Z,95.20
2019-05-05T00:56:05.663Z,95.20
2019-05-05T00:58:36.671Z,95.20
2019-05-05T01:01:14.441Z,95.30
2019-05-05T01:03:44.247Z,95.30
2019-05-05T01:06:15.568Z,95.30
2019-05-05T01:08:45.909Z,95.30
2019-05-05T01:11:16.121Z,95.30
2019-05-05T01:13:45.645Z,95.30
2019-05-05T01:16:15.278Z,95.30
2019-05-05T01:18:45.131Z,95.30
2019-05-05T01:21:15.088Z,95.30
2019-05-05T01:23:45.527Z,95.40
2019-05-05T01:26:15.033Z,95.40
2019-05-05T01:28:44.767Z,95.40
2019-05-05T01:31:16.953Z,95.30
2019-05-05T01:33:50.663Z,95.30
2019-05-05T01:36:19.929Z,95.30
2019-05-05T01:38:50.856Z,95.30
2019-05-05T01:41:21.775Z,95.30
2019-05-05T01:43:51.045Z,95.30
2019-05-05T01:46:20.338Z,95.30
2019-05-05T01:48:49.902Z,95.30
2019-05-05T01:51:19.169Z,95.30
2019-05-05T01:53:48.447Z,95.40
2019-05-05T01:56:18.097Z,95.40
2019-05-05T01:58:48.210Z,95.40
2019-05-05T02:01:17.490Z,95.40
2019-05-05T02:03:46.833Z,95.40
2019-05-05T02:06:16.120Z,95.40
2019-05-05T02:08:45.554Z,95.40
2019-05-05T02:11:15.664Z,95.40
2019-05-05T02:13:45.160Z,95.40
2019-05-05T02:16:15.088Z,95.40
2019-05-05T02:18:45.031Z,95.40
2019-05-05T02:21:14.652Z,95.40
2019-05-05T02:23:45.301Z,95.40
2019-05-05T02:26:15.297Z,95.40
2019-05-05T02:28:49.102Z,95.40
2019-05-05T02:31:25.979Z,95.40
2019-05-05T02:33:56.798Z,95.40
2019-05-05T02:36:26.543Z,95.50
2019-05-05T02:38:56.777Z,95.40
2019-05-05T02:41:26.562Z,95.50
2019-05-05T02:43:56.381Z,95.40
2019-05-05T02:46:35.673Z,95.50
2019-05-05T02:49:05.566Z,95.40
2019-05-05T02:51:35.922Z,95.50
2019-05-05T02:54:05.665Z,95.50
2019-05-05T02:56:39.539Z,95.40
2019-05-05T02:59:10.918Z,95.50
2019-05-05T03:01:44.540Z,95.50
2019-05-05T03:04:14.222Z,95.50
2019-05-05T03:06:46.631Z,95.50
2019-05-05T03:09:16.931Z,95.50
2019-05-05T03:11:48.517Z,95.50
2019-05-05T03:14:19.662Z,95.50
2019-05-05T03:16:49.792Z,95.50
2019-05-05T03:19:23.561Z,95.50
2019-05-05T03:21:54.648Z,95.50
2019-05-05T03:24:24.248Z,95.50
2019-05-05T03:26:53.811Z,95.60
2019-05-05T03:29:24.332Z,95.50
2019-05-05T03:31:56.384Z,95.50
2019-05-05T03:34:24.996Z,95.60
2019-05-05T03:36:54.796Z,95.70
2019-05-05T03:39:28.883Z,95.70
2019-05-05T03:42:18.178Z,95.70
2019-05-05T03:44:59.004Z,95.70
2019-05-05T03:47:28.415Z,95.60
2019-05-05T03:49:58.036Z,95.60
2019-05-05T03:52:28.658Z,95.70
2019-05-05T03:54:58.505Z,95.70
2019-05-05T03:57:28.009Z,95.70
2019-05-05T03:59:57.950Z,95.70
2019-05-05T04:02:28.864Z,95.70
2019-05-05T04:04:59.772Z,95.90
2019-05-05T04:07:29.040Z,96.10
2019-05-05T04:09:58.308Z,96.50
2019-05-05T04:12:27.649Z,96.30
2019-05-05T04:14:57.167Z,96.20
2019-05-05T04:17:34.013Z,96.10
2019-05-05T04:20:21.112Z,96.00
2019-05-05T04:22:50.408Z,96.10
2019-05-05T04:25:20.758Z,96.00
2019-05-05T04:27:50.032Z,96.00
2019-05-05T04:30:19.333Z,96.00
2019-05-05T04:32:48.586Z,96.10
2019-05-05T04:35:17.854Z,96.10
2019-05-05T04:37:47.144Z,96.10
2019-05-05T04:40:16.416Z,96.10
2019-05-05T04:42:45.692Z,96.20
2019-05-05T04:45:16.102Z,96.20
2019-05-05T04:47:47.029Z,96.20
2019-05-05T04:50:18.466Z,96.20
2019-05-05T04:52:49.113Z,96.30
2019-05-05T04:55:18.411Z,96.20
2019-05-05T04:57:47.692Z,96.20
2019-05-05T05:00:17.292Z,96.10
2019-05-05T05:02:48.197Z,96.10
2019-05-05T05:05:35.395Z,96.10
2019-05-05T05:08:04.664Z,96.10
2019-05-05T05:10:34.585Z,96.10
2019-05-05T05:13:04.628Z,96.10
2019-05-05T05:15:34.228Z,96.10
2019-05-05T05:18:16.857Z,96.10
2019-05-05T05:20:47.291Z,96.10
2019-05-05T05:23:16.561Z,96.00
2019-05-05T05:25:45.853Z,96.10
2019-05-05T05:28:15.167Z,96.10
2019-05-05T05:30:44.452Z,96.00
2019-05-05T05:33:14.943Z,96.00
2019-05-05T05:35:44.475Z,95.90
2019-05-05T05:38:14.157Z,96.00
2019-05-05T05:40:45.245Z,96.00
2019-05-05T05:43:16.180Z,96.00
2019-05-05T05:45:47.085Z,95.90
2019-05-05T05:48:24.001Z,95.90
2019-05-05T05:50:55.992Z,95.90
2019-05-05T05:53:25.273Z,95.90
2019-05-05T05:55:54.546Z,95.80
2019-05-05T05:58:24.529Z,95.90
2019-05-05T06:00:54.857Z,95.90
2019-05-05T06:03:24.559Z,95.90
2019-05-05T06:05:54.155Z,95.80
2019-05-05T06:08:24.342Z,95.80
2019-05-05T06:10:54.676Z,95.80
2019-05-05T06:13:24.291Z,95.80
2019-05-05T06:15:53.755Z,95.80
2019-05-05T06:18:24.327Z,95.80
2019-05-05T06:20:53.859Z,95.70
2019-05-05T06:23:24.047Z,95.70
2019-05-05T06:25:55.133Z,95.50
2019-05-05T06:28:24.417Z,95.50
2019-05-05T06:30:54.618Z,95.50
2019-05-05T06:33:24.330Z,95.40
2019-05-05T06:35:53.753Z,95.30
2019-05-05T06:38:24.202Z,95.20
2019-05-05T06:41:00.930Z,95.10
2019-05-05T06:43:37.537Z,95.10
2019-05-05T06:46:08.446Z,95.00
2019-05-05T06:48:37.762Z,94.70
2019-05-05T06:51:07.024Z,94.80
2019-05-05T06:53:36.467Z,94.90
2019-05-05T06:56:05.724Z,94.80
2019-05-05T06:58:35.000Z,94.70
2019-05-05T07:01:04.292Z,94.70
2019-05-05T07:03:33.804Z,94.90
2019-05-05T07:06:04.312Z,94.90
2019-05-05T07:08:34.728Z,94.90
2019-05-05T07:11:04.341Z,94.80
2019-05-05T07:13:34.047Z,94.90
2019-05-05T07:16:04.838Z,94.90
2019-05-05T07:18:34.344Z,94.90
2019-05-05T07:21:03.867Z,94.80
2019-05-05T07:23:34.045Z,94.80
2019-05-05T07:26:04.131Z,94.90
2019-05-05T07:28:34.327Z,94.80
2019-05-05T07:31:04.416Z,94.70
2019-05-05T07:33:34.557Z,94.50
2019-05-05T07:36:22.133Z,94.50
2019-05-05T07:38:51.401Z,94.50
2019-05-05T07:41:20.675Z,94.50
2019-05-05T07:43:50.050Z,94.40
2019-05-05T07:46:19.339Z,94.30
2019-05-05T07:48:48.626Z,94.30
2019-05-05T07:51:18.008Z,94.30
2019-05-05T07:53:47.268Z,94.20
2019-05-05T07:56:16.552Z,94.30
2019-05-05T07:58:46.844Z,94.20
2019-05-05T08:01:16.118Z,94.10
2019-05-05T08:03:45.385Z,94.10
2019-05-05T08:06:14.774Z,94.20
2019-05-05T08:08:44.465Z,94.20
2019-05-05T08:11:14.773Z,94.10
2019-05-05T08:13:44.469Z,94.10
2019-05-05T08:16:33.681Z,94.00
2019-05-05T08:19:21.277Z,94.10
2019-05-05T08:21:50.781Z,94.00
2019-05-05T08:24:21.716Z,93.80
2019-05-05T08:26:54.502Z,93.70
2019-05-05T08:29:28.459Z,93.50
2019-05-05T08:32:04.375Z,93.20
2019-05-05T08:34:33.993Z,92.90
2019-05-05T08:37:04.416Z,92.50
2019-05-05T08:39:34.746Z,92.40
2019-05-05T08:42:04.386Z,92.30
2019-05-05T08:44:34.399Z,92.10
2019-05-05T08:47:04.494Z,91.90
2019-05-05T08:49:34.770Z,91.30
2019-05-05T08:52:04.311Z,91.50
2019-05-05T08:54:34.355Z,91.10
2019-05-05T08:57:04.342Z,90.70
2019-05-05T08:59:34.658Z,90.10
2019-05-05T09:02:04.478Z,89.80
2019-05-05T09:04:34.875Z,88.00
2019-05-05T09:07:05.005Z,87.60
2019-05-05T09:09:34.509Z,87.80
2019-05-05T09:12:04.533Z,87.20
2019-05-05T09:14:34.564Z,88.00
2019-05-05T09:17:04.571Z,86.30
2019-05-05T09:19:34.497Z,85.00
2019-05-05T09:22:06.832Z,83.90
2019-05-05T09:24:36.522Z,81.80
2019-05-05T09:27:07.533Z,79.60
2019-05-05T09:29:38.446Z,80.60
2019-05-05T09:32:07.781Z,81.00
2019-05-05T09:34:37.069Z,80.80
2019-05-05T09:37:06.554Z,79.70
2019-05-05T09:39:35.873Z,80.10
2019-05-05T09:42:05.181Z,79.40
2019-05-05T09:44:34.769Z,79.80
2019-05-05T09:47:05.178Z,79.20
2019-05-05T09:49:35.596Z,79.80
2019-05-05T09:52:05.161Z,79.80
2019-05-05T09:54:34.721Z,80.00
2019-05-05T09:57:04.661Z,80.30
2019-05-05T09:59:35.109Z,80.30
2019-05-05T10:02:04.671Z,80.70
2019-05-05T10:04:35.650Z,80.20
2019-05-05T10:07:05.306Z,80.10
2019-05-05T10:09:34.793Z,80.90
2019-05-05T10:12:04.896Z,79.70
2019-05-05T10:14:34.389Z,79.30
2019-05-05T10:17:05.075Z,76.80
2019-05-05T10:19:34.513Z,74.70
2019-05-05T10:22:04.802Z,72.80
2019-05-05T10:24:41.710Z,71.80
2019-05-05T10:27:11.018Z,71.40
2019-05-05T10:29:40.332Z,73.30
2019-05-05T10:32:09.634Z,74.90
2019-05-05T10:34:38.945Z,77.40
2019-05-05T10:37:08.232Z,78.60
2019-05-05T10:39:48.187Z,79.90
2019-05-05T10:42:19.131Z,81.30
2019-05-05T10:44:48.445Z,81.90
2019-05-05T10:47:17.710Z,82.20
2019-05-05T10:49:47.031Z,82.30
2019-05-05T10:52:16.332Z,82.70
2019-05-05T10:54:45.642Z,83.00
2019-05-05T10:57:18.350Z,82.10
2019-05-05T10:59:45.946Z,80.00
2019-05-05T11:02:15.307Z,80.60
2019-05-05T11:04:44.593Z,79.60
2019-05-05T11:07:14.671Z,78.40
2019-05-05T11:09:44.466Z,78.50
2019-05-05T11:12:14.363Z,78.80
2019-05-05T11:14:44.432Z,79.20
2019-05-05T11:17:14.395Z,76.10
2019-05-05T11:19:44.313Z,72.80
2019-05-05T11:22:14.653Z,72.90
2019-05-05T11:24:57.136Z,72.70
2019-05-05T11:27:15.253Z,72.80
2019-05-05T11:30:03.949Z,72.10
2019-05-05T11:32:52.150Z,70.70
2019-05-05T11:35:24.445Z,69.20
2019-05-05T11:37:54.312Z,67.70
2019-05-05T11:40:31.008Z,66.80
2019-05-05T11:43:00.279Z,66.20
2019-05-05T11:45:29.610Z,66.40
2019-05-05T11:47:58.926Z,64.10
2019-05-05T11:50:28.264Z,63.10
2019-05-05T11:52:58.554Z,64.10
2019-05-05T11:55:27.917Z,64.80
2019-05-05T11:57:57.742Z,65.90
2019-05-05T12:00:27.511Z,66.10
2019-05-05T12:02:56.854Z,67.30
2019-05-05T12:05:27.210Z,67.00
2019-05-05T12:07:56.502Z,67.60
2019-05-05T12:10:28.475Z,67.40
2019-05-05T12:13:04.022Z,67.00
2019-05-05T12:15:34.113Z,68.00
2019-05-05T12:18:03.864Z,68.40
2019-05-05T12:20:37.754Z,68.30
2019-05-05T12:23:07.700Z,67.80
2019-05-05T12:25:38.929Z,66.70
2019-05-05T12:28:24.889Z,63.40
2019-05-05T12:31:14.165Z,64.60
2019-05-05T12:33:44.503Z,64.20
2019-05-05T12:36:15.034Z,64.90
2019-05-05T12:38:45.564Z,65.10
2019-05-05T12:41:14.991Z,65.00
2019-05-05T12:43:44.348Z,64.30
2019-05-05T12:46:18.996Z,64.20
2019-05-05T12:48:49.936Z,63.00
2019-05-05T12:51:19.221Z,62.90
2019-05-05T12:53:48.497Z,62.20
2019-05-05T12:56:17.806Z,61.30
2019-05-05T12:58:47.130Z,60.70
2019-05-05T13:01:21.028Z,59.90
2019-05-05T13:03:50.401Z,61.40
2019-05-05T13:06:19.742Z,62.60
2019-05-05T13:08:49.022Z,65.70
2019-05-05T13:11:18.770Z,69.20
2019-05-05T13:13:48.062Z,70.50
2019-05-05T13:16:17.357Z,75.00
2019-05-05T13:18:46.641Z,75.00
2019-05-05T13:21:23.984Z,75.60
2019-05-05T13:24:01.092Z,77.00
2019-05-05T13:26:32.975Z,76.90
2019-05-05T13:29:02.268Z,78.40
2019-05-05T13:31:33.626Z,79.80
2019-05-05T13:34:04.422Z,80.40
2019-05-05T13:36:34.468Z,79.00
2019-05-05T13:39:06.072Z,79.10
2019-05-05T13:41:35.712Z,79.50
2019-05-05T13:44:06.634Z,78.90
2019-05-05T13:46:37.542Z,78.60
2019-05-05T13:49:24.085Z,77.10
2019-05-05T13:51:54.033Z,76.30
2019-05-05T13:54:24.233Z,75.30
2019-05-05T13:56:53.766Z,73.00
2019-05-05T13:59:23.042Z,71.80
2019-05-05T14:01:53.967Z,70.10
2019-05-05T14:04:23.270Z,67.50
2019-05-05T14:06:54.327Z,64.90
2019-05-05T14:09:23.798Z,64.50
2019-05-05T14:11:53.599Z,62.10
2019-05-05T14:14:24.228Z,60.30
2019-05-05T14:16:53.844Z,57.30
2019-05-05T14:19:24.843Z,59.70
2019-05-05T14:21:54.254Z,60.50
2019-05-05T14:24:30.659Z,55.80
2019-05-05T14:26:59.949Z,55.30
2019-05-05T14:29:46.047Z,56.30
2019-05-05T14:32:16.957Z,55.00
2019-05-05T14:34:50.805Z,51.50
2019-05-05T14:37:38.028Z,50.10
2019-05-05T14:40:07.982Z,50.00
2019-05-05T14:42:37.357Z,49.70
2019-05-05T14:45:07.075Z,50.10
2019-05-05T14:47:36.360Z,50.00
2019-05-05T14:50:06.084Z,50.00
2019-05-05T14:52:35.366Z,52.20
2019-05-05T14:55:06.189Z,52.40
2019-05-05T14:57:35.496Z,52.90
2019-05-05T15:00:09.767Z,54.10
2019-05-05T15:02:39.406Z,54.10
2019-05-05T15:05:19.771Z,53.50
2019-05-05T15:07:56.417Z,53.70
2019-05-05T15:10:44.024Z,55.20
2019-05-05T15:13:14.822Z,55.10
2019-05-05T15:15:44.161Z,55.20
2019-05-05T15:18:14.633Z,55.50
2019-05-05T15:20:45.000Z,55.80
2019-05-05T15:23:14.282Z,54.40
2019-05-05T15:25:44.648Z,53.80
2019-05-05T15:28:14.130Z,53.80
2019-05-05T15:30:44.147Z,53.90
2019-05-05T15:33:13.880Z,52.00
2019-05-05T15:35:46.303Z,48.20
2019-05-05T15:38:15.233Z,48.30
2019-05-05T15:40:47.938Z,49.30
2019-05-05T15:43:16.574Z,48.90
2019-05-05T15:45:46.114Z,49.10
2019-05-05T15:48:15.420Z,49.60
2019-05-05T15:50:44.725Z,50.80
2019-05-05T15:53:14.433Z,52.50
2019-05-05T15:55:44.300Z,53.60
2019-05-05T15:58:14.191Z,54.70
2019-05-05T16:00:44.304Z,55.70
2019-05-05T16:03:13.733Z,56.60
2019-05-05T16:05:43.619Z,56.60
2019-05-05T16:08:14.131Z,57.20
2019-05-05T16:10:46.192Z,57.70
2019-05-05T16:13:14.656Z,57.70
2019-05-05T16:15:45.580Z,56.80
2019-05-05T16:18:16.507Z,55.90
2019-05-05T16:21:03.612Z,53.80
2019-05-05T16:23:35.951Z,53.40
2019-05-05T16:26:05.309Z,53.20
2019-05-05T16:28:35.563Z,52.80
2019-05-05T16:31:05.461Z,52.50
2019-05-05T16:33:34.901Z,51.20
2019-05-05T16:36:06.234Z,51.50
2019-05-05T16:38:35.633Z,50.70
2019-05-05T16:41:04.907Z,50.00
2019-05-05T16:43:34.200Z,50.40
2019-05-05T16:46:04.247Z,47.40
2019-05-05T16:48:34.367Z,47.50
2019-05-05T16:51:05.429Z,46.70
2019-05-05T16:53:35.591Z,46.90
2019-05-05T16:56:11.229Z,47.40
2019-05-05T16:58:40.614Z,47.40
2019-05-05T17:01:11.536Z,47.50
2019-05-05T17:03:45.415Z,47.80
2019-05-05T17:06:14.029Z,46.20
2019-05-05T17:08:44.437Z,46.70
2019-05-05T17:11:14.993Z,47.20
2019-05-05T17:14:03.902Z,47.50
2019-05-05T17:16:35.312Z,48.00
2019-05-05T17:19:21.521Z,48.30
2019-05-05T17:21:53.590Z,48.50
2019-05-05T17:24:23.950Z,48.00
2019-05-05T17:26:55.083Z,48.70
2019-05-05T17:29:24.507Z,49.30
2019-05-05T17:31:54.627Z,50.10
2019-05-05T17:34:24.653Z,50.60
2019-05-05T17:36:54.379Z,51.10
2019-05-05T17:39:25.324Z,51.60
2019-05-05T17:41:56.242Z,52.00
2019-05-05T17:44:27.157Z,52.10
2019-05-05T17:47:04.458Z,52.70
2019-05-05T17:49:35.548Z,53.20
2019-05-05T17:52:06.481Z,53.70
2019-05-05T17:54:37.406Z,54.30
2019-05-05T17:57:06.684Z,54.80
2019-05-05T17:59:35.969Z,55.10
2019-05-05T18:02:06.217Z,55.40
2019-05-05T18:04:35.502Z,55.30
2019-05-05T18:07:06.505Z,55.70
2019-05-05T18:09:37.443Z,56.10
2019-05-05T18:12:14.325Z,56.40
2019-05-05T18:14:45.258Z,56.80
2019-05-05T18:17:14.562Z,56.00
2019-05-05T18:19:43.862Z,56.70
2019-05-05T18:22:13.884Z,56.80
2019-05-05T18:24:44.630Z,57.00
2019-05-05T18:27:15.144Z,57.20
2019-05-05T18:29:44.425Z,57.10
2019-05-05T18:32:13.955Z,56.90
2019-05-05T18:34:43.287Z,57.20
2019-05-05T18:37:14.406Z,57.30
2019-05-05T18:39:43.979Z,57.60
2019-05-05T18:42:17.896Z,57.60
2019-05-05T18:44:48.830Z,57.70
2019-05-05T18:47:19.193Z,59.10
2019-05-05T18:49:48.653Z,58.70
2019-05-05T18:52:17.959Z,59.30
2019-05-05T18:54:47.233Z,60.50
2019-05-05T18:57:16.515Z,60.30
2019-05-05T18:59:45.804Z,61.00
2019-05-05T19:02:16.726Z,61.50
2019-05-05T19:04:50.598Z,61.50
2019-05-05T19:07:30.525Z,61.90
2019-05-05T19:09:59.805Z,61.80
2019-05-05T19:12:29.169Z,62.20
2019-05-05T19:14:58.481Z,62.60
2019-05-05T19:17:28.809Z,62.90
2019-05-05T19:19:59.861Z,63.00
2019-05-05T19:22:29.164Z,63.10
2019-05-05T19:25:00.078Z,63.30
2019-05-05T19:27:29.434Z,63.40
2019-05-05T19:29:58.731Z,63.40
2019-05-05T19:32:28.049Z,63.70
2019-05-05T19:34:57.320Z,64.10
2019-05-05T19:37:26.643Z,64.40
2019-05-05T19:39:55.977Z,64.80
2019-05-05T19:42:25.322Z,65.00
2019-05-05T19:44:54.618Z,65.20
2019-05-05T19:47:24.642Z,65.70
2019-05-05T19:49:58.120Z,66.10
2019-05-05T19:52:27.425Z,66.70
2019-05-05T19:54:57.656Z,67.30
2019-05-05T19:57:26.952Z,67.60
2019-05-05T19:59:56.233Z,68.10
2019-05-05T20:02:25.573Z,68.30
2019-05-05T20:04:54.868Z,68.60
2019-05-05T20:07:24.779Z,68.80
2019-05-05T20:09:54.473Z,69.20
2019-05-05T20:12:23.825Z,69.30
2019-05-05T20:14:54.445Z,69.50
2019-05-05T20:17:25.451Z,69.90
2019-05-05T20:19:55.207Z,70.30
2019-05-05T20:22:27.832Z,70.50
2019-05-05T20:24:57.322Z,70.80
2019-05-05T20:27:26.650Z,71.00
2019-05-05T20:29:55.923Z,71.60
2019-05-05T20:32:29.514Z,71.60
2019-05-05T20:35:04.115Z,71.80
2019-05-05T20:37:38.161Z,72.00
2019-05-05T20:40:09.453Z,72.00
2019-05-05T20:42:38.864Z,72.30
2019-05-05T20:45:09.952Z,72.50
2019-05-05T20:47:39.228Z,72.80
2019-05-05T20:50:08.513Z,72.90
2019-05-05T20:52:37.772Z,73.10
2019-05-05T20:55:07.054Z,73.50
2019-05-05T20:57:37.413Z,73.50
2019-05-05T21:00:09.567Z,73.80
2019-05-05T21:02:40.455Z,74.00
2019-05-05T21:05:09.749Z,74.30
2019-05-05T21:07:39.014Z,74.60
2019-05-05T21:10:08.365Z,75.00
2019-05-05T21:12:42.225Z,75.10
2019-05-05T21:15:09.073Z,75.60
2019-05-05T21:17:38.487Z,75.90
2019-05-05T21:20:08.374Z,76.30
2019-05-05T21:22:48.453Z,76.80
2019-05-05T21:25:38.009Z,77.10
2019-05-05T21:28:07.292Z,77.20
2019-05-05T21:30:36.576Z,77.60
2019-05-05T21:33:05.860Z,77.70
2019-05-05T21:35:35.218Z,78.00
2019-05-05T21:38:04.860Z,78.10
2019-05-05T21:40:34.667Z,78.20
2019-05-05T21:43:05.009Z,78.60
2019-05-05T21:45:34.894Z,78.10
2019-05-05T21:48:05.387Z,78.40
2019-05-05T21:50:42.509Z,78.40
2019-05-05T21:53:14.118Z,78.20
2019-05-05T21:56:01.602Z,78.20
2019-05-05T21:58:34.613Z,78.20
2019-05-05T22:01:10.023Z,78.20
2019-05-05T22:03:40.383Z,78.20
2019-05-05T22:06:09.794Z,78.20
2019-05-05T22:08:39.067Z,78.30
2019-05-05T22:11:08.346Z,78.10
2019-05-05T22:13:37.627Z,78.20
2019-05-05T22:16:07.218Z,78.30
2019-05-05T22:18:36.493Z,78.20
2019-05-05T22:21:10.390Z,78.50
2019-05-05T22:23:39.672Z,78.40
2019-05-05T22:26:08.948Z,78.60
2019-05-05T22:28:38.221Z,78.80
2019-05-05T22:31:07.503Z,78.90
2019-05-05T22:33:36.810Z,79.00
2019-05-05T22:36:07.046Z,79.40
2019-05-05T22:38:36.448Z,79.30
2019-05-05T22:41:05.736Z,79.40
2019-05-05T22:43:36.045Z,79.50
2019-05-05T22:46:05.326Z,80.10
2019-05-05T22:48:34.818Z,80.00
2019-05-05T22:51:04.096Z,80.30
2019-05-05T22:53:34.667Z,80.60
2019-05-05T22:56:04.140Z,80.80
2019-05-05T22:58:34.882Z,81.10
2019-05-05T23:01:04.407Z,81.10
2019-05-05T23:03:46.037Z,81.50
2019-05-05T23:06:16.950Z,81.50
2019-05-05T23:08:46.222Z,81.70
2019-05-05T23:11:15.501Z,81.90
2019-05-05T23:13:44.765Z,82.20
2019-05-05T23:16:15.918Z,82.50
2019-05-05T23:18:45.276Z,82.60
2019-05-05T23:21:19.235Z,82.80
2019-05-05T23:23:50.214Z,82.90
2019-05-05T23:26:21.158Z,83.10
2019-05-05T23:28:53.561Z,83.40
2019-05-05T23:31:24.086Z,83.60
2019-05-05T23:33:54.854Z,83.80
2019-05-05T23:36:24.341Z,83.90
2019-05-05T23:38:55.022Z,84.20
2019-05-05T23:41:24.387Z,84.50
2019-05-05T23:43:54.459Z,84.70
2019-05-05T23:46:24.756Z,85.00
2019-05-05T23:48:54.029Z,85.30
2019-05-05T23:51:24.236Z,85.60
2019-05-05T23:53:55.119Z,85.80
2019-05-05T23:56:24.461Z,86.00
2019-05-05T23:58:54.906Z,86.20
